createdAt,value
2022-08-16T00:01:21.953Z,5.50
2022-08-16T00:03:51.407Z,6.00
2022-08-16T00:06:18.000Z,5.57
2022-08-16T00:08:45.731Z,6.70
2022-08-16T00:11:15.309Z,5.80
2022-08-16T00:13:54.106Z,5.60
2022-08-16T00:17:06.250Z,6.20
2022-08-16T00:19:17.546Z,6.23
2022-08-16T00:21:46.422Z,6.23
2022-08-16T00:24:32.211Z,5.10
2022-08-16T00:27:00.356Z,6.07
2022-08-16T00:29:29.636Z,6.20
2022-08-16T00:31:59.842Z,5.60
2022-08-16T00:34:44.373Z,5.70
2022-08-16T00:37:17.326Z,5.70
2022-08-16T00:39:47.005Z,5.63
2022-08-16T00:42:14.715Z,5.53
2022-08-16T00:45:06.433Z,5.70
2022-08-16T00:47:38.916Z,6.03
2022-08-16T00:50:08.266Z,6.20
2022-08-16T00:52:38.527Z,5.63
2022-08-16T00:55:12.660Z,6.30
2022-08-16T00:57:59.031Z,5.87
2022-08-16T01:00:28.652Z,6.70
2022-08-16T01:02:57.764Z,6.10
2022-08-16T01:05:25.489Z,5.33
2022-08-16T01:07:53.555Z,6.30
2022-08-16T01:10:32.075Z,5.63
2022-08-16T01:13:05.577Z,5.13
2022-08-16T01:15:35.243Z,5.33
2022-08-16T01:18:04.517Z,5.40
2022-08-16T01:20:37.829Z,4.60
2022-08-16T01:23:18.495Z,5.03
2022-08-16T01:25:58.207Z,4.80
2022-08-16T01:28:38.765Z,4.63
2022-08-16T01:31:14.704Z,4.50
2022-08-16T01:33:44.483Z,4.17
2022-08-16T01:36:12.958Z,4.20
2022-08-16T01:38:49.227Z,4.30
2022-08-16T01:41:29.648Z,4.30
2022-08-16T01:43:56.925Z,4.67
2022-08-16T01:46:39.404Z,4.40
2022-08-16T01:49:43.676Z,3.93
2022-08-16T01:52:29.586Z,4.33
2022-08-16T01:54:58.057Z,4.17
2022-08-16T01:57:27.295Z,4.97
2022-08-16T01:59:54.639Z,4.27
2022-08-16T02:02:28.324Z,4.40
2022-08-16T02:04:57.569Z,4.83
2022-08-16T02:07:25.620Z,4.57
2022-08-16T02:09:58.946Z,4.50
2022-08-16T02:12:49.742Z,5.60
2022-08-16T02:15:16.221Z,4.20
2022-08-16T02:17:43.374Z,4.33
2022-08-16T02:20:12.051Z,4.50
2022-08-16T02:22:38.880Z,4.27
2022-08-16T02:25:10.556Z,4.47
2022-08-16T02:27:41.738Z,4.60
2022-08-16T02:30:36.760Z,4.87
2022-08-16T02:33:03.449Z,4.63
2022-08-16T02:35:31.269Z,4.50
2022-08-16T02:38:01.852Z,4.10
2022-08-16T02:40:36.116Z,4.60
2022-08-16T02:43:04.289Z,4.87
2022-08-16T02:45:31.787Z,4.40
2022-08-16T02:48:01.856Z,4.70
2022-08-16T02:50:54.376Z,4.80
2022-08-16T02:53:33.053Z,4.40
2022-08-16T02:56:00.431Z,5.27
2022-08-16T02:58:28.385Z,4.50
2022-08-16T03:00:57.426Z,5.00
2022-08-16T03:03:26.029Z,4.80
2022-08-16T03:05:53.533Z,4.70
2022-08-16T03:08:50.403Z,4.57
2022-08-16T03:11:16.903Z,4.47
2022-08-16T03:13:47.625Z,4.53
2022-08-16T03:16:17.963Z,4.87
2022-08-16T03:19:01.749Z,4.30
2022-08-16T03:21:29.288Z,4.43
2022-08-16T03:24:06.289Z,4.60
2022-08-16T03:26:52.888Z,5.10
2022-08-16T03:29:19.649Z,4.20
2022-08-16T03:31:46.758Z,5.47
2022-08-16T03:34:19.535Z,4.30
2022-08-16T03:36:47.311Z,4.97
2022-08-16T03:39:14.923Z,4.50
2022-08-16T03:41:50.647Z,5.03
2022-08-16T03:44:44.809Z,4.63
2022-08-16T03:47:05.194Z,5.03
2022-08-16T03:49:37.535Z,4.30
2022-08-16T03:52:05.837Z,4.90
2022-08-16T03:54:32.648Z,5.17
2022-08-16T03:57:03.012Z,5.27
2022-08-16T03:59:31.942Z,5.83
2022-08-16T04:02:01.180Z,4.73
2022-08-16T04:04:32.818Z,5.27
2022-08-16T04:07:02.782Z,5.20
2022-08-16T04:09:31.124Z,5.10
2022-08-16T04:12:10.652Z,5.53
2022-08-16T04:14:38.647Z,5.07
2022-08-16T04:17:15.350Z,5.40
2022-08-16T04:19:45.430Z,5.40
2022-08-16T04:22:13.856Z,4.80
2022-08-16T04:24:43.903Z,4.60
2022-08-16T04:27:21.154Z,4.87
2022-08-16T04:29:47.788Z,4.90
2022-08-16T04:32:19.826Z,5.47
2022-08-16T04:34:47.178Z,5.13
2022-08-16T04:37:14.144Z,5.30
2022-08-16T04:39:47.004Z,5.43
2022-08-16T04:42:26.173Z,5.90
2022-08-16T04:44:55.900Z,5.37
2022-08-16T04:47:31.315Z,5.23
2022-08-16T04:49:58.822Z,5.13
2022-08-16T04:52:34.995Z,5.27
2022-08-16T04:55:09.533Z,5.30
2022-08-16T04:57:38.557Z,5.53
2022-08-16T05:00:31.136Z,5.77
2022-08-16T05:02:58.886Z,5.40
2022-08-16T05:05:32.851Z,5.53
2022-08-16T05:08:29.565Z,5.20
2022-08-16T05:10:50.308Z,5.13
2022-08-16T05:13:18.984Z,6.03
2022-08-16T05:15:46.976Z,5.80
2022-08-16T05:18:17.138Z,5.70
2022-08-16T05:21:01.856Z,5.97
2022-08-16T05:23:35.422Z,5.20
2022-08-16T05:26:02.346Z,5.50
2022-08-16T05:28:55.237Z,5.20
2022-08-16T05:31:29.238Z,5.77
2022-08-16T05:33:57.515Z,5.33
2022-08-16T05:36:24.809Z,5.30
2022-08-16T05:39:01.018Z,5.40
2022-08-16T05:41:45.300Z,5.30
2022-08-16T05:44:24.107Z,4.60
2022-08-16T05:46:57.545Z,5.13
2022-08-16T05:49:39.920Z,5.10
2022-08-16T05:52:13.699Z,5.00
2022-08-16T05:54:47.689Z,4.33
2022-08-16T05:57:18.418Z,5.27
2022-08-16T05:59:47.191Z,5.97
2022-08-16T06:02:14.022Z,4.73
2022-08-16T06:04:45.192Z,5.53
2022-08-16T06:07:24.598Z,4.60
2022-08-16T06:09:52.758Z,4.90
2022-08-16T06:12:27.120Z,4.77
2022-08-16T06:15:07.747Z,3.60
2022-08-16T06:17:42.609Z,4.50
2022-08-16T06:20:18.449Z,5.10
2022-08-16T06:22:58.551Z,4.27
2022-08-16T06:25:35.869Z,5.30
2022-08-16T06:28:08.358Z,4.60
2022-08-16T06:30:36.074Z,4.43
2022-08-16T06:33:22.466Z,4.33
2022-08-16T06:35:50.959Z,4.80
2022-08-16T06:38:33.684Z,5.57
2022-08-16T06:41:03.983Z,4.70
2022-08-16T06:43:31.093Z,5.30
2022-08-16T06:46:03.851Z,4.77
2022-08-16T06:48:32.645Z,5.03
2022-08-16T06:51:01.584Z,5.37
2022-08-16T06:53:29.705Z,4.90
2022-08-16T06:55:58.614Z,3.80
2022-08-16T06:58:31.676Z,4.27
2022-08-16T07:01:00.236Z,5.63
2022-08-16T07:03:32.545Z,5.50
2022-08-16T07:05:59.766Z,4.57
2022-08-16T07:08:29.490Z,5.30
2022-08-16T07:10:58.588Z,6.47
2022-08-16T07:13:58.803Z,3.87
2022-08-16T07:16:16.487Z,5.00
2022-08-16T07:19:01.522Z,4.40
2022-08-16T07:21:45.578Z,5.70
2022-08-16T07:24:30.020Z,5.47
2022-08-16T07:26:58.659Z,4.77
2022-08-16T07:29:26.428Z,5.50
2022-08-16T07:31:59.434Z,6.23
2022-08-16T07:34:35.015Z,5.90
2022-08-16T07:37:10.709Z,5.47
2022-08-16T07:39:43.419Z,4.17
2022-08-16T07:42:11.087Z,6.13
2022-08-16T07:44:52.533Z,5.90
2022-08-16T07:47:19.332Z,4.40
2022-08-16T07:49:52.949Z,5.40
2022-08-16T07:52:24.865Z,5.23
2022-08-16T07:54:57.199Z,5.37
2022-08-16T07:57:24.626Z,4.50
2022-08-16T07:59:51.950Z,6.67
2022-08-16T08:02:19.709Z,6.50
2022-08-16T08:04:47.649Z,6.13
2022-08-16T08:07:16.245Z,5.10
2022-08-16T08:09:43.957Z,5.70
2022-08-16T08:12:32.383Z,6.30
2022-08-16T08:14:57.983Z,6.70
2022-08-16T08:17:25.078Z,4.37
2022-08-16T08:20:13.200Z,5.30
2022-08-16T08:23:01.110Z,5.97
2022-08-16T08:25:54.495Z,4.80
2022-08-16T08:28:18.458Z,7.20
2022-08-16T08:30:55.980Z,6.17
2022-08-16T08:33:27.930Z,6.30
2022-08-16T08:36:00.770Z,5.90
2022-08-16T08:38:44.002Z,6.67
2022-08-16T08:41:13.282Z,4.90
2022-08-16T08:43:41.530Z,5.30
2022-08-16T08:46:17.806Z,5.47
2022-08-16T08:48:46.326Z,6.47
2022-08-16T08:51:27.711Z,4.77
2022-08-16T08:54:06.967Z,5.43
2022-08-16T08:56:34.943Z,5.60
2022-08-16T08:59:12.823Z,5.80
2022-08-16T09:01:56.711Z,5.03
2022-08-16T09:04:25.828Z,6.50
2022-08-16T09:06:54.201Z,6.27
2022-08-16T09:09:22.536Z,5.13
2022-08-16T09:12:04.066Z,6.00
2022-08-16T09:14:34.032Z,6.13
2022-08-16T09:17:04.111Z,4.93
2022-08-16T09:19:40.667Z,5.70
2022-08-16T09:22:19.872Z,6.70
2022-08-16T09:24:52.551Z,6.90
2022-08-16T09:27:21.797Z,7.00
2022-08-16T09:29:59.924Z,6.80
2022-08-16T09:32:30.958Z,6.37
2022-08-16T09:34:59.652Z,6.80
2022-08-16T09:37:29.454Z,5.50
2022-08-16T09:39:57.972Z,6.43
2022-08-16T09:42:28.157Z,6.43
2022-08-16T09:45:11.068Z,4.77
2022-08-16T09:47:56.940Z,6.70
2022-08-16T09:50:38.419Z,5.03
2022-08-16T09:53:19.649Z,5.90
2022-08-16T09:59:30.750Z,6.57
2022-08-16T10:01:58.279Z,6.83
2022-08-16T10:04:30.948Z,5.10
2022-08-16T10:07:01.694Z,4.93
2022-08-16T10:09:54.332Z,6.73
2022-08-16T10:12:34.988Z,6.43
2022-08-16T10:15:15.691Z,7.07
2022-08-16T10:18:00.231Z,6.17
2022-08-16T10:20:30.120Z,5.37
2022-08-16T10:23:03.711Z,5.80
2022-08-16T10:27:20.517Z,5.30
2022-08-16T10:28:28.989Z,5.30
2022-08-16T10:30:58.633Z,6.07
2022-08-16T10:33:27.109Z,4.90
2022-08-16T10:36:02.544Z,5.33
2022-08-16T10:38:33.030Z,4.50
2022-08-16T10:41:04.046Z,5.40
2022-08-16T10:43:31.396Z,4.90
2022-08-16T10:46:00.299Z,4.33
2022-08-16T10:48:28.898Z,5.00
2022-08-16T10:50:59.417Z,4.60
2022-08-16T10:53:32.663Z,4.53
2022-08-16T10:56:02.530Z,5.20
2022-08-16T10:58:34.582Z,5.20
2022-08-16T11:01:24.973Z,4.90
2022-08-16T11:03:54.583Z,5.47
2022-08-16T11:06:28.063Z,5.13
2022-08-16T11:14:29.684Z,4.80
2022-08-16T11:17:02.690Z,4.77
2022-08-16T11:20:00.639Z,5.40
2022-08-16T11:22:41.913Z,6.07
2022-08-16T11:25:12.490Z,5.50
2022-08-16T11:27:39.824Z,5.30
2022-08-16T11:30:12.368Z,5.30
2022-08-16T11:32:47.224Z,5.10
2022-08-16T11:35:43.404Z,5.10
2022-08-16T11:38:47.213Z,5.03
2022-08-16T11:41:01.769Z,5.50
2022-08-16T11:43:33.362Z,5.10
2022-08-16T11:46:43.279Z,4.90
2022-08-16T11:48:51.645Z,5.50
2022-08-16T11:51:18.634Z,5.03
2022-08-16T11:53:45.946Z,5.20
2022-08-16T11:56:14.995Z,5.20
2022-08-16T11:58:41.835Z,5.17
2022-08-16T12:01:10.733Z,6.00
2022-08-16T12:03:38.097Z,5.07
2022-08-16T12:06:25.122Z,5.17
2022-08-16T12:08:57.323Z,5.50
2022-08-16T12:11:28.158Z,5.40
2022-08-16T12:14:02.140Z,6.10
2022-08-16T12:16:34.401Z,5.60
2022-08-16T12:19:03.424Z,5.30
2022-08-16T12:21:35.832Z,5.17
2022-08-16T12:24:18.268Z,5.40
2022-08-16T12:26:44.933Z,5.20
2022-08-16T12:29:11.754Z,5.23
2022-08-16T12:31:38.829Z,5.10
2022-08-16T12:34:28.831Z,5.50
2022-08-16T12:36:56.172Z,5.23
2022-08-16T12:39:23.651Z,4.70
2022-08-16T12:41:56.248Z,4.70
2022-08-16T12:44:25.065Z,5.07
2022-08-16T12:47:11.916Z,5.00
2022-08-16T12:49:42.189Z,5.20
2022-08-16T12:52:09.213Z,5.23
2022-08-16T12:54:37.314Z,5.83
2022-08-16T12:57:08.504Z,5.43
2022-08-16T12:59:42.764Z,5.33
2022-08-16T13:02:12.395Z,5.00
2022-08-16T13:04:49.251Z,5.13
2022-08-16T13:07:18.068Z,5.30
2022-08-16T13:09:58.211Z,4.93
2022-08-16T13:12:27.913Z,5.33
2022-08-16T13:14:55.779Z,5.37
2022-08-16T13:17:26.541Z,5.60
2022-08-16T13:20:07.122Z,5.80
2022-08-16T13:22:37.577Z,5.60
2022-08-16T13:25:07.562Z,5.70
2022-08-16T13:28:15.074Z,5.53
2022-08-16T13:30:37.668Z,5.00
2022-08-16T13:33:12.427Z,5.10
2022-08-16T13:35:43.358Z,4.87
2022-08-16T13:38:10.723Z,5.57
2022-08-16T13:40:51.139Z,5.20
2022-08-16T13:43:19.497Z,5.20
2022-08-16T13:45:46.125Z,4.60
2022-08-16T13:48:24.543Z,4.93
2022-08-16T13:50:54.071Z,4.83
2022-08-16T13:53:24.374Z,4.57
2022-08-16T13:55:59.114Z,4.63
2022-08-16T13:58:36.881Z,4.50
2022-08-16T14:01:16.189Z,4.60
2022-08-16T14:03:44.640Z,5.10
2022-08-16T14:06:13.178Z,5.20
2022-08-16T14:08:59.380Z,4.80
2022-08-16T14:11:32.320Z,5.57
2022-08-16T14:13:59.267Z,4.80
2022-08-16T14:16:33.642Z,5.17
2022-08-16T14:19:02.268Z,5.27
2022-08-16T14:21:35.376Z,5.10
2022-08-16T14:24:12.895Z,4.90
2022-08-16T14:26:49.941Z,5.00
2022-08-16T14:31:53.461Z,5.50
2022-08-16T14:34:21.044Z,5.67
2022-08-16T14:36:52.057Z,5.17
2022-08-16T14:39:21.831Z,5.60
2022-08-16T14:41:49.117Z,5.67
2022-08-16T14:44:23.505Z,5.00
2022-08-16T14:46:50.141Z,4.70
2022-08-16T14:49:19.362Z,5.63
2022-08-16T14:51:48.582Z,4.77
2022-08-16T14:54:15.260Z,5.47
2022-08-16T14:56:46.775Z,5.10
2022-08-16T14:59:22.753Z,4.33
2022-08-16T15:01:58.780Z,4.67
2022-08-16T15:04:32.559Z,4.93
2022-08-16T15:07:11.113Z,4.93
2022-08-16T15:10:01.207Z,5.20
2022-08-16T15:12:33.880Z,5.27
2022-08-16T15:15:12.389Z,5.73
2022-08-16T15:17:41.501Z,4.93
2022-08-16T15:20:10.818Z,4.83
2022-08-16T15:22:43.264Z,4.40
2022-08-16T15:25:17.644Z,4.43
2022-08-16T15:27:45.311Z,4.80
2022-08-16T15:30:57.176Z,4.50
2022-08-16T15:33:15.178Z,4.20
2022-08-16T15:35:42.945Z,4.70
2022-08-16T15:38:10.427Z,4.67
2022-08-16T15:40:58.822Z,4.80
2022-08-16T15:43:33.859Z,4.57
2022-08-16T15:46:35.423Z,4.70
2022-08-16T15:49:12.024Z,4.57
2022-08-16T15:51:39.460Z,4.70
2022-08-16T15:54:21.285Z,4.90
2022-08-16T15:56:55.078Z,5.60
2022-08-16T15:59:24.451Z,4.80
2022-08-16T16:01:55.921Z,4.80
2022-08-16T16:04:25.472Z,4.97
2022-08-16T16:06:54.872Z,4.13
2022-08-16T16:09:26.190Z,4.63
2022-08-16T16:12:41.473Z,4.70
2022-08-16T16:14:54.508Z,4.13
2022-08-16T16:17:21.150Z,4.60
2022-08-16T16:19:49.788Z,4.10
2022-08-16T16:22:21.473Z,4.57
2022-08-16T16:24:49.276Z,4.23
2022-08-16T16:27:16.612Z,4.87
2022-08-16T16:29:46.386Z,4.40
2022-08-16T16:32:30.531Z,4.37
2022-08-16T16:35:01.628Z,4.63
2022-08-16T16:37:30.801Z,5.07
2022-08-16T16:39:58.602Z,4.00
2022-08-16T16:42:29.234Z,5.87
2022-08-16T16:45:01.182Z,7.20
2022-08-16T16:47:40.726Z,5.67
2022-08-16T16:50:10.114Z,5.87
2022-08-16T16:52:44.840Z,5.37
2022-08-16T16:55:14.818Z,5.70
2022-08-16T16:58:01.057Z,5.10
2022-08-16T17:00:37.769Z,4.70
2022-08-16T17:03:17.318Z,5.50
2022-08-16T17:05:57.056Z,5.67
2022-08-16T17:08:30.809Z,4.50
2022-08-16T17:10:57.629Z,4.70
2022-08-16T17:13:25.177Z,4.70
2022-08-16T17:15:52.953Z,5.07
2022-08-16T17:19:14.637Z,4.57
2022-08-16T17:21:08.585Z,5.00
2022-08-16T17:23:59.226Z,4.70
2022-08-16T17:26:29.494Z,4.80
2022-08-16T17:28:59.324Z,5.03
2022-08-16T17:31:41.003Z,4.80
2022-08-16T17:34:28.581Z,4.80
2022-08-16T17:36:58.737Z,5.17
2022-08-16T17:39:30.003Z,4.00
2022-08-16T17:42:02.268Z,4.70
2022-08-16T17:44:29.018Z,4.40
2022-08-16T17:46:56.064Z,4.50
2022-08-16T17:49:23.204Z,4.30
2022-08-16T17:51:49.895Z,4.30
2022-08-16T17:54:18.393Z,4.40
2022-08-16T17:56:57.207Z,4.47
2022-08-16T17:59:24.132Z,4.40
2022-08-16T18:01:51.363Z,4.33
2022-08-16T18:04:48.880Z,5.17
2022-08-16T18:07:05.214Z,4.20
2022-08-16T18:09:31.863Z,4.83
2022-08-16T18:11:58.552Z,4.57
2022-08-16T18:14:50.834Z,4.90
2022-08-16T18:17:13.072Z,4.80
2022-08-16T18:19:40.284Z,4.30
2022-08-16T18:22:18.727Z,4.63
2022-08-16T18:24:46.555Z,4.30
2022-08-16T18:27:26.099Z,4.80
2022-08-16T18:29:54.182Z,4.30
2022-08-16T18:32:23.092Z,4.30
2022-08-16T18:34:54.616Z,4.73
2022-08-16T18:37:23.269Z,4.67
2022-08-16T18:39:50.038Z,4.90
2022-08-16T18:42:16.712Z,4.90
2022-08-16T18:44:44.057Z,4.70
2022-08-16T18:47:10.929Z,4.43
2022-08-16T18:49:37.593Z,4.60
2022-08-16T18:52:05.247Z,5.33
2022-08-16T18:54:33.721Z,5.17
2022-08-16T18:57:20.270Z,4.83
2022-08-16T18:59:46.914Z,5.43
2022-08-16T19:02:57.428Z,4.53
2022-08-16T19:05:20.801Z,5.27
2022-08-16T19:07:48.002Z,5.53
2022-08-16T19:10:15.161Z,4.73
2022-08-16T19:12:43.820Z,4.93
2022-08-16T19:15:15.833Z,5.50
2022-08-16T19:17:44.576Z,5.00
2022-08-16T19:20:13.146Z,4.83
2022-08-16T19:25:46.325Z,4.93
2022-08-16T19:28:48.931Z,4.77
2022-08-16T19:31:04.602Z,4.67
2022-08-16T19:33:31.699Z,5.00
2022-08-16T19:35:58.373Z,4.53
2022-08-16T19:38:25.212Z,5.33
2022-08-16T19:40:51.874Z,5.80
2022-08-16T19:43:21.749Z,5.27
2022-08-16T19:45:49.233Z,5.50
2022-08-16T19:48:15.892Z,5.80
2022-08-16T19:50:43.004Z,5.63
2022-08-16T19:53:15.064Z,5.60
2022-08-16T19:55:46.046Z,5.50
2022-08-16T19:58:15.239Z,6.40
2022-08-16T20:00:43.216Z,5.97
2022-08-16T20:03:15.894Z,6.07
2022-08-16T20:05:43.847Z,5.83
2022-08-16T20:08:11.386Z,6.43
2022-08-16T20:10:39.651Z,5.80
2022-08-16T20:13:12.630Z,6.03
2022-08-16T20:15:40.978Z,6.87
2022-08-16T20:18:17.154Z,6.07
2022-08-16T20:20:49.896Z,6.00
2022-08-16T20:23:24.880Z,5.90
2022-08-16T20:25:55.371Z,6.23
2022-08-16T20:28:40.633Z,6.20
2022-08-16T20:31:11.304Z,6.40
2022-08-16T20:33:38.359Z,6.20
2022-08-16T20:36:05.265Z,6.03
2022-08-16T20:38:31.868Z,6.80
2022-08-16T20:40:58.891Z,5.87
2022-08-16T20:43:25.478Z,6.30
2022-08-16T20:45:52.286Z,6.60
2022-08-16T20:48:19.363Z,6.40
2022-08-16T20:50:45.952Z,6.20
2022-08-16T20:53:12.981Z,6.47
2022-08-16T20:55:40.298Z,6.40
2022-08-16T20:58:07.470Z,6.10
2022-08-16T21:00:36.489Z,6.50
2022-08-16T21:03:12.250Z,6.87
2022-08-16T21:05:39.485Z,6.20
2022-08-16T21:08:51.450Z,6.67
2022-08-16T21:10:53.663Z,7.00
2022-08-16T21:13:20.914Z,6.77
2022-08-16T21:15:47.714Z,6.70
2022-08-16T21:18:14.762Z,7.17
2022-08-16T21:20:41.850Z,7.10
2022-08-16T21:23:11.000Z,7.40
2022-08-16T21:25:49.828Z,6.83
2022-08-16T21:28:41.272Z,6.70
2022-08-16T21:31:15.201Z,7.03
2022-08-16T21:33:43.015Z,6.90
2022-08-16T21:36:11.397Z,7.50
2022-08-16T21:38:39.109Z,7.03
2022-08-16T21:41:07.566Z,7.37
2022-08-16T21:43:34.732Z,7.20
2022-08-16T21:46:03.495Z,7.37
2022-08-16T21:48:34.896Z,7.20
2022-08-16T21:51:09.853Z,6.70
2022-08-16T21:53:37.707Z,8.00
2022-08-16T21:56:06.375Z,7.20
2022-08-16T21:58:33.825Z,7.53
2022-08-16T22:01:01.547Z,7.70
2022-08-16T22:03:32.625Z,7.30
2022-08-16T22:06:13.560Z,7.53
2022-08-16T22:08:49.119Z,6.80
2022-08-16T22:11:24.333Z,6.70
2022-08-16T22:13:57.860Z,7.27
2022-08-16T22:16:28.944Z,6.97
2022-08-16T22:18:55.562Z,8.10
2022-08-16T22:21:22.360Z,8.17
2022-08-16T22:23:55.267Z,7.00
2022-08-16T22:26:32.719Z,6.70
2022-08-16T22:29:04.905Z,6.70
2022-08-16T22:31:32.169Z,7.10
2022-08-16T22:34:01.480Z,7.67
2022-08-16T22:36:29.152Z,7.30
2022-08-16T22:38:58.717Z,7.60
2022-08-16T22:41:28.044Z,8.07
2022-08-16T22:43:54.934Z,7.57
2022-08-16T22:46:21.553Z,7.47
2022-08-16T22:48:51.290Z,7.57
2022-08-16T22:51:19.655Z,7.17
2022-08-16T22:53:46.325Z,7.27
2022-08-16T22:56:13.231Z,7.80
2022-08-16T22:58:40.234Z,7.50
2022-08-16T23:01:09.614Z,8.23
2022-08-16T23:03:37.461Z,8.20
2022-08-16T23:06:04.909Z,7.10
2022-08-16T23:08:39.624Z,6.73
2022-08-16T23:11:17.911Z,7.83
2022-08-16T23:13:53.320Z,7.70
2022-08-16T23:16:33.197Z,7.97
2022-08-16T23:19:09.259Z,6.73
2022-08-16T23:21:37.841Z,7.37
2022-08-16T23:24:05.849Z,7.93
2022-08-16T23:26:44.235Z,6.77
2022-08-16T23:29:23.194Z,7.10
2022-08-16T23:31:58.685Z,7.70
2022-08-16T23:34:27.208Z,8.10
2022-08-16T23:36:53.956Z,7.47
2022-08-16T23:39:20.704Z,8.47
2022-08-16T23:41:47.308Z,8.87
2022-08-16T23:44:55.146Z,8.07
2022-08-16T23:47:00.734Z,7.63
2022-08-16T23:49:58.176Z,7.87
2022-08-16T23:52:14.164Z,7.73
2022-08-16T23:54:40.776Z,8.40
2022-08-16T23:57:08.283Z,7.73
2022-08-16T23:59:52.160Z,7.93
